Main page
METAR-TAF:

METAR-TAF

Airports :

Nawabshah Airport

Nawabshah, Pakistan

latitude: 26-15N, longitude: 068-22E, elevation: 37 m

Current weather observation

The report was made 27 minutes ago, at 22:00 UTC
Calm wind
Temperature 18°C
Humidity 64%
Pressure 1013 hPa
Visibility: 3000 m
smoke

METAR: OPNH 202200Z 00000KT 3000 FU NSC 18/11 Q1013 NOSIG

Time: 03:27 (22:27 UTC)

Forecast

The report was made 6 hours and 57 minutes ago, at 15:30 UTC
Forecast valid from 20 at 18 UTC to 21 at 24 UTC
Wind 7 kt from the North/Northwest
Visibility: 3000 m
smoke
Temporary
from 21 at 00 UTC to 21 at 05 UTC
Wind 2 kt from variable directions
Visibility: 2000 m
smoke
From 21 at 0500 UTC
Wind 5 kt from the Northwest with gusts up to 15 kt
Visibility: 4000 m
haze

TAF: OPNH 201530Z 2018/2124 34007KT 3000 FU NSC TEMPO 2100/2105 VRB02KT 2000 FU NSC FM210500 31005G15KT 4000 HZ NSC

Weather observations and forecasts of more than 4000 airports (METAR and TAF reports).

The available stations are represented by yellow and red dots on the map.

Hover mouse over dot to see the name of the station.

Then click to see weather observations and forecasts.

To change the map : click on the green buttons with a black cross to zoom in, on the green button with a dash to zoom out, or on the green arrows for adjacent maps.


METAR-TAF: